sensor_id;sensor_type;location;lat;lon;timestamp;P1;P2;P0
73241;PMS5003;65659;49.234;-2.094;2023-07-31T00:00:33;10;8;
73241;PMS5003;65659;49.234;-2.094;2023-07-31T00:02:59;8;7;
73241;PMS5003;65659;49.234;-2.094;2023-07-31T00:05:24;9;9;
73241;PMS5003;65659;49.234;-2.094;2023-07-31T00:07:50;10;8;
73241;PMS5003;65659;49.234;-2.094;2023-07-31T00:10:16;8;7;
73241;PMS5003;65659;49.234;-2.094;2023-07-31T00:12:42;9;9;
73241;PMS5003;65659;49.234;-2.094;2023-07-31T00:15:07;8;7;
73241;PMS5003;65659;49.234;-2.094;2023-07-31T00:17:33;7;6;
73241;PMS5003;65659;49.234;-2.094;2023-07-31T00:19:58;10;10;
73241;PMS5003;65659;49.234;-2.094;2023-07-31T00:22:24;9;8;
73241;PMS5003;65659;49.234;-2.094;2023-07-31T00:24:49;9;9;
73241;PMS5003;65659;49.234;-2.094;2023-07-31T00:27:14;9;9;
73241;PMS5003;65659;49.234;-2.094;2023-07-31T00:29:40;8;8;
73241;PMS5003;65659;49.234;-2.094;2023-07-31T00:32:06;8;8;
73241;PMS5003;65659;49.234;-2.094;2023-07-31T00:34:31;7;7;
73241;PMS5003;65659;49.234;-2.094;2023-07-31T00:36:57;11;11;
73241;PMS5003;65659;49.234;-2.094;2023-07-31T00:39:22;11;10;
73241;PMS5003;65659;49.234;-2.094;2023-07-31T00:41:47;8;8;
73241;PMS5003;65659;49.234;-2.094;2023-07-31T00:44:12;10;10;
73241;PMS5003;65659;49.234;-2.094;2023-07-31T00:46:38;8;8;
73241;PMS5003;65659;49.234;-2.094;2023-07-31T00:49:03;8;6;
73241;PMS5003;65659;49.234;-2.094;2023-07-31T00:51:29;6;6;
73241;PMS5003;65659;49.234;-2.094;2023-07-31T00:53:54;10;9;
73241;PMS5003;65659;49.234;-2.094;2023-07-31T00:56:19;9;9;
73241;PMS5003;65659;49.234;-2.094;2023-07-31T00:58:45;9;8;
73241;PMS5003;65659;49.234;-2.094;2023-07-31T01:01:11;9;9;
73241;PMS5003;65659;49.234;-2.094;2023-07-31T01:03:36;7;6;
73241;PMS5003;65659;49.234;-2.094;2023-07-31T01:06:06;7;7;
73241;PMS5003;65659;49.234;-2.094;2023-07-31T01:08:29;10;9;
73241;PMS5003;65659;49.234;-2.094;2023-07-31T01:10:54;8;8;
73241;PMS5003;65659;49.234;-2.094;2023-07-31T01:13:18;9;8;
73241;PMS5003;65659;49.234;-2.094;2023-07-31T01:15:44;9;7;
73241;PMS5003;65659;49.234;-2.094;2023-07-31T01:18:10;10;10;
73241;PMS5003;65659;49.234;-2.094;2023-07-31T01:20:35;12;10;
73241;PMS5003;65659;49.234;-2.094;2023-07-31T01:23:08;10;9;
73241;PMS5003;65659;49.234;-2.094;2023-07-31T01:25:32;11;10;
73241;PMS5003;65659;49.234;-2.094;2023-07-31T01:27:53;8;8;
73241;PMS5003;65659;49.234;-2.094;2023-07-31T01:30:20;8;8;
73241;PMS5003;65659;49.234;-2.094;2023-07-31T01:32:43;9;7;
73241;PMS5003;65659;49.234;-2.094;2023-07-31T01:35:08;9;8;
73241;PMS5003;65659;49.234;-2.094;2023-07-31T01:37:33;6;6;
73241;PMS5003;65659;49.234;-2.094;2023-07-31T01:39:59;8;8;
73241;PMS5003;65659;49.234;-2.094;2023-07-31T01:42:24;11;10;
73241;PMS5003;65659;49.234;-2.094;2023-07-31T01:44:50;9;7;
73241;PMS5003;65659;49.234;-2.094;2023-07-31T01:47:16;7;7;
73241;PMS5003;65659;49.234;-2.094;2023-07-31T01:49:41;6;6;
73241;PMS5003;65659;49.234;-2.094;2023-07-31T01:52:07;7;7;
73241;PMS5003;65659;49.234;-2.094;2023-07-31T01:54:32;7;6;
73241;PMS5003;65659;49.234;-2.094;2023-07-31T01:56:58;7;7;
73241;PMS5003;65659;49.234;-2.094;2023-07-31T01:59:24;13;11;
73241;PMS5003;65659;49.234;-2.094;2023-07-31T02:01:49;11;11;
73241;PMS5003;65659;49.234;-2.094;2023-07-31T02:04:14;11;11;
73241;PMS5003;65659;49.234;-2.094;2023-07-31T02:06:40;7;7;
73241;PMS5003;65659;49.234;-2.094;2023-07-31T02:09:05;10;9;
73241;PMS5003;65659;49.234;-2.094;2023-07-31T02:11:31;9;9;
73241;PMS5003;65659;49.234;-2.094;2023-07-31T02:13:56;8;7;
73241;PMS5003;65659;49.234;-2.094;2023-07-31T02:16:22;9;9;
73241;PMS5003;65659;49.234;-2.094;2023-07-31T02:18:47;10;9;
73241;PMS5003;65659;49.234;-2.094;2023-07-31T02:21:13;9;8;
73241;PMS5003;65659;49.234;-2.094;2023-07-31T02:23:39;12;9;
73241;PMS5003;65659;49.234;-2.094;2023-07-31T02:26:04;8;8;
73241;PMS5003;65659;49.234;-2.094;2023-07-31T02:28:30;7;7;
73241;PMS5003;65659;49.234;-2.094;2023-07-31T02:30:55;10;10;
73241;PMS5003;65659;49.234;-2.094;2023-07-31T02:33:21;10;10;
73241;PMS5003;65659;49.234;-2.094;2023-07-31T02:35:47;7;7;
73241;PMS5003;65659;49.234;-2.094;2023-07-31T02:38:12;7;7;
73241;PMS5003;65659;49.234;-2.094;2023-07-31T02:40:39;10;9;
73241;PMS5003;65659;49.234;-2.094;2023-07-31T02:43:03;10;10;
73241;PMS5003;65659;49.234;-2.094;2023-07-31T02:45:29;9;9;
73241;PMS5003;65659;49.234;-2.094;2023-07-31T02:47:55;10;8;
73241;PMS5003;65659;49.234;-2.094;2023-07-31T02:50:20;11;11;
73241;PMS5003;65659;49.234;-2.094;2023-07-31T02:52:45;9;9;
73241;PMS5003;65659;49.234;-2.094;2023-07-31T02:55:10;11;11;
73241;PMS5003;65659;49.234;-2.094;2023-07-31T02:57:36;13;12;
73241;PMS5003;65659;49.234;-2.094;2023-07-31T03:00:01;10;8;
73241;PMS5003;65659;49.234;-2.094;2023-07-31T03:02:27;11;11;
73241;PMS5003;65659;49.234;-2.094;2023-07-31T03:04:53;16;16;
73241;PMS5003;65659;49.234;-2.094;2023-07-31T03:07:18;10;9;
73241;PMS5003;65659;49.234;-2.094;2023-07-31T03:09:44;8;7;
73241;PMS5003;65659;49.234;-2.094;2023-07-31T03:12:09;9;9;
73241;PMS5003;65659;49.234;-2.094;2023-07-31T03:14:35;9;9;
73241;PMS5003;65659;49.234;-2.094;2023-07-31T03:17:00;6;6;
73241;PMS5003;65659;49.234;-2.094;2023-07-31T03:19:26;10;9;
73241;PMS5003;65659;49.234;-2.094;2023-07-31T03:21:51;8;8;
73241;PMS5003;65659;49.234;-2.094;2023-07-31T03:24:17;8;7;
73241;PMS5003;65659;49.234;-2.094;2023-07-31T03:26:43;8;8;
73241;PMS5003;65659;49.234;-2.094;2023-07-31T03:29:08;10;9;
73241;PMS5003;65659;49.234;-2.094;2023-07-31T03:31:34;8;8;
73241;PMS5003;65659;49.234;-2.094;2023-07-31T03:33:59;8;7;
73241;PMS5003;65659;49.234;-2.094;2023-07-31T03:36:25;9;9;
73241;PMS5003;65659;49.234;-2.094;2023-07-31T03:38:51;10;9;
73241;PMS5003;65659;49.234;-2.094;2023-07-31T03:41:16;7;7;
73241;PMS5003;65659;49.234;-2.094;2023-07-31T03:43:42;8;7;
73241;PMS5003;65659;49.234;-2.094;2023-07-31T03:46:07;7;7;
73241;PMS5003;65659;49.234;-2.094;2023-07-31T03:48:33;11;10;
73241;PMS5003;65659;49.234;-2.094;2023-07-31T03:50:59;9;8;
73241;PMS5003;65659;49.234;-2.094;2023-07-31T03:53:24;8;7;
73241;PMS5003;65659;49.234;-2.094;2023-07-31T03:55:50;7;7;
73241;PMS5003;65659;49.234;-2.094;2023-07-31T03:58:15;7;6;
73241;PMS5003;65659;49.234;-2.094;2023-07-31T04:00:41;8;8;
73241;PMS5003;65659;49.234;-2.094;2023-07-31T04:03:07;8;8;
73241;PMS5003;65659;49.234;-2.094;2023-07-31T04:05:32;15;14;
73241;PMS5003;65659;49.234;-2.094;2023-07-31T04:07:57;11;9;
73241;PMS5003;65659;49.234;-2.094;2023-07-31T04:10:23;10;10;
73241;PMS5003;65659;49.234;-2.094;2023-07-31T04:12:49;5;5;
73241;PMS5003;65659;49.234;-2.094;2023-07-31T04:15:14;6;6;
73241;PMS5003;65659;49.234;-2.094;2023-07-31T04:17:40;8;7;
73241;PMS5003;65659;49.234;-2.094;2023-07-31T04:20:06;7;7;
73241;PMS5003;65659;49.234;-2.094;2023-07-31T04:22:31;7;7;
73241;PMS5003;65659;49.234;-2.094;2023-07-31T04:24:57;9;7;
73241;PMS5003;65659;49.234;-2.094;2023-07-31T04:27:23;8;7;
73241;PMS5003;65659;49.234;-2.094;2023-07-31T04:29:48;6;5;
73241;PMS5003;65659;49.234;-2.094;2023-07-31T04:32:14;8;7;
73241;PMS5003;65659;49.234;-2.094;2023-07-31T04:34:40;6;6;
73241;PMS5003;65659;49.234;-2.094;2023-07-31T04:37:05;10;10;
73241;PMS5003;65659;49.234;-2.094;2023-07-31T04:39:31;7;7;
73241;PMS5003;65659;49.234;-2.094;2023-07-31T04:41:56;6;5;
73241;PMS5003;65659;49.234;-2.094;2023-07-31T04:44:22;9;9;
73241;PMS5003;65659;49.234;-2.094;2023-07-31T04:46:47;8;8;
73241;PMS5003;65659;49.234;-2.094;2023-07-31T04:49:12;6;6;
73241;PMS5003;65659;49.234;-2.094;2023-07-31T04:51:38;9;8;
73241;PMS5003;65659;49.234;-2.094;2023-07-31T04:54:04;10;8;
73241;PMS5003;65659;49.234;-2.094;2023-07-31T04:56:30;5;5;
73241;PMS5003;65659;49.234;-2.094;2023-07-31T04:58:55;10;8;
73241;PMS5003;65659;49.234;-2.094;2023-07-31T05:01:21;6;6;
73241;PMS5003;65659;49.234;-2.094;2023-07-31T05:03:47;7;6;
73241;PMS5003;65659;49.234;-2.094;2023-07-31T05:06:12;7;7;
73241;PMS5003;65659;49.234;-2.094;2023-07-31T05:08:37;6;6;
73241;PMS5003;65659;49.234;-2.094;2023-07-31T05:11:03;5;5;
73241;PMS5003;65659;49.234;-2.094;2023-07-31T05:13:28;7;7;
73241;PMS5003;65659;49.234;-2.094;2023-07-31T05:15:54;6;5;
73241;PMS5003;65659;49.234;-2.094;2023-07-31T05:18:19;5;5;
73241;PMS5003;65659;49.234;-2.094;2023-07-31T05:20:45;5;5;
73241;PMS5003;65659;49.234;-2.094;2023-07-31T05:23:11;7;6;
73241;PMS5003;65659;49.234;-2.094;2023-07-31T05:25:36;8;7;
73241;PMS5003;65659;49.234;-2.094;2023-07-31T05:28:02;7;6;
73241;PMS5003;65659;49.234;-2.094;2023-07-31T05:30:29;5;5;
73241;PMS5003;65659;49.234;-2.094;2023-07-31T05:32:53;9;8;
73241;PMS5003;65659;49.234;-2.094;2023-07-31T05:35:18;5;5;
73241;PMS5003;65659;49.234;-2.094;2023-07-31T05:37:44;7;6;
73241;PMS5003;65659;49.234;-2.094;2023-07-31T05:40:09;6;6;
73241;PMS5003;65659;49.234;-2.094;2023-07-31T05:42:35;10;8;
73241;PMS5003;65659;49.234;-2.094;2023-07-31T05:45:00;5;5;
73241;PMS5003;65659;49.234;-2.094;2023-07-31T05:47:25;9;8;
73241;PMS5003;65659;49.234;-2.094;2023-07-31T05:49:51;7;6;
73241;PMS5003;65659;49.234;-2.094;2023-07-31T05:52:17;3;3;
73241;PMS5003;65659;49.234;-2.094;2023-07-31T05:54:43;4;4;
73241;PMS5003;65659;49.234;-2.094;2023-07-31T05:57:08;4;4;
73241;PMS5003;65659;49.234;-2.094;2023-07-31T06:02:00;4;3;
73241;PMS5003;65659;49.234;-2.094;2023-07-31T06:04:25;4;4;
73241;PMS5003;65659;49.234;-2.094;2023-07-31T06:06:51;4;4;
73241;PMS5003;65659;49.234;-2.094;2023-07-31T06:09:17;3;2;
73241;PMS5003;65659;49.234;-2.094;2023-07-31T06:11:43;3;3;
73241;PMS5003;65659;49.234;-2.094;2023-07-31T06:14:08;3;3;
73241;PMS5003;65659;49.234;-2.094;2023-07-31T06:16:34;2;2;
73241;PMS5003;65659;49.234;-2.094;2023-07-31T06:19:00;3;3;
73241;PMS5003;65659;49.234;-2.094;2023-07-31T06:21:26;3;3;
73241;PMS5003;65659;49.234;-2.094;2023-07-31T06:23:51;3;3;
73241;PMS5003;65659;49.234;-2.094;2023-07-31T06:26:17;4;4;
73241;PMS5003;65659;49.234;-2.094;2023-07-31T06:28:43;3;3;
73241;PMS5003;65659;49.234;-2.094;2023-07-31T06:31:09;4;4;
73241;PMS5003;65659;49.234;-2.094;2023-07-31T06:33:34;4;4;
73241;PMS5003;65659;49.234;-2.094;2023-07-31T06:36:00;5;3;
73241;PMS5003;65659;49.234;-2.094;2023-07-31T06:38:26;4;4;
73241;PMS5003;65659;49.234;-2.094;2023-07-31T06:40:51;4;4;
73241;PMS5003;65659;49.234;-2.094;2023-07-31T06:43:17;4;3;
73241;PMS5003;65659;49.234;-2.094;2023-07-31T06:45:42;3;2;
73241;PMS5003;65659;49.234;-2.094;2023-07-31T06:48:08;5;5;
73241;PMS5003;65659;49.234;-2.094;2023-07-31T06:50:34;3;2;
73241;PMS5003;65659;49.234;-2.094;2023-07-31T06:53:00;4;3;
73241;PMS5003;65659;49.234;-2.094;2023-07-31T06:55:25;6;5;
73241;PMS5003;65659;49.234;-2.094;2023-07-31T06:57:52;6;5;
73241;PMS5003;65659;49.234;-2.094;2023-07-31T07:00:17;10;9;
73241;PMS5003;65659;49.234;-2.094;2023-07-31T07:02:42;4;4;
73241;PMS5003;65659;49.234;-2.094;2023-07-31T07:05:08;3;3;
73241;PMS5003;65659;49.234;-2.094;2023-07-31T07:07:33;3;3;
73241;PMS5003;65659;49.234;-2.094;2023-07-31T07:09:59;8;6;
73241;PMS5003;65659;49.234;-2.094;2023-07-31T07:12:25;4;4;
73241;PMS5003;65659;49.234;-2.094;2023-07-31T07:14:50;5;5;
73241;PMS5003;65659;49.234;-2.094;2023-07-31T07:17:16;3;3;
73241;PMS5003;65659;49.234;-2.094;2023-07-31T07:19:42;3;2;
73241;PMS5003;65659;49.234;-2.094;2023-07-31T07:22:07;4;3;
73241;PMS5003;65659;49.234;-2.094;2023-07-31T07:24:33;3;3;
73241;PMS5003;65659;49.234;-2.094;2023-07-31T07:26:59;2;2;
73241;PMS5003;65659;49.234;-2.094;2023-07-31T07:29:24;6;3;
73241;PMS5003;65659;49.234;-2.094;2023-07-31T07:31:50;3;3;
73241;PMS5003;65659;49.234;-2.094;2023-07-31T07:34:16;4;3;
73241;PMS5003;65659;49.234;-2.094;2023-07-31T07:36:41;2;2;
73241;PMS5003;65659;49.234;-2.094;2023-07-31T07:39:08;3;3;
73241;PMS5003;65659;49.234;-2.094;2023-07-31T07:41:32;7;7;
73241;PMS5003;65659;49.234;-2.094;2023-07-31T07:43:59;3;3;
73241;PMS5003;65659;49.234;-2.094;2023-07-31T07:46:24;2;2;
73241;PMS5003;65659;49.234;-2.094;2023-07-31T07:48:50;3;3;
73241;PMS5003;65659;49.234;-2.094;2023-07-31T07:51:16;5;4;
73241;PMS5003;65659;49.234;-2.094;2023-07-31T07:53:42;3;3;
73241;PMS5003;65659;49.234;-2.094;2023-07-31T07:56:07;4;3;
73241;PMS5003;65659;49.234;-2.094;2023-07-31T07:58:33;4;3;
73241;PMS5003;65659;49.234;-2.094;2023-07-31T08:00:58;5;4;
73241;PMS5003;65659;49.234;-2.094;2023-07-31T08:03:25;5;5;
73241;PMS5003;65659;49.234;-2.094;2023-07-31T08:05:50;4;4;
73241;PMS5003;65659;49.234;-2.094;2023-07-31T08:08:16;5;5;
73241;PMS5003;65659;49.234;-2.094;2023-07-31T08:10:41;5;5;
73241;PMS5003;65659;49.234;-2.094;2023-07-31T08:13:07;6;5;
73241;PMS5003;65659;49.234;-2.094;2023-07-31T08:15:34;5;5;
73241;PMS5003;65659;49.234;-2.094;2023-07-31T08:17:59;4;4;
73241;PMS5003;65659;49.234;-2.094;2023-07-31T08:20:23;6;6;
73241;PMS5003;65659;49.234;-2.094;2023-07-31T08:22:50;4;4;
73241;PMS5003;65659;49.234;-2.094;2023-07-31T08:25:18;6;6;
73241;PMS5003;65659;49.234;-2.094;2023-07-31T08:27:42;6;6;
73241;PMS5003;65659;49.234;-2.094;2023-07-31T08:30:11;6;6;
73241;PMS5003;65659;49.234;-2.094;2023-07-31T08:32:36;5;5;
73241;PMS5003;65659;49.234;-2.094;2023-07-31T08:34:58;5;5;
73241;PMS5003;65659;49.234;-2.094;2023-07-31T08:37:24;4;4;
73241;PMS5003;65659;49.234;-2.094;2023-07-31T08:39:49;8;8;
73241;PMS5003;65659;49.234;-2.094;2023-07-31T08:42:16;11;9;
73241;PMS5003;65659;49.234;-2.094;2023-07-31T08:44:41;6;6;
73241;PMS5003;65659;49.234;-2.094;2023-07-31T08:47:06;9;9;
73241;PMS5003;65659;49.234;-2.094;2023-07-31T08:49:32;6;6;
73241;PMS5003;65659;49.234;-2.094;2023-07-31T08:51:58;8;7;
73241;PMS5003;65659;49.234;-2.094;2023-07-31T08:54:23;9;9;
73241;PMS5003;65659;49.234;-2.094;2023-07-31T08:56:49;9;8;
73241;PMS5003;65659;49.234;-2.094;2023-07-31T08:59:15;7;7;
73241;PMS5003;65659;49.234;-2.094;2023-07-31T09:01:41;7;7;
73241;PMS5003;65659;49.234;-2.094;2023-07-31T09:04:06;12;10;
73241;PMS5003;65659;49.234;-2.094;2023-07-31T09:06:31;9;9;
73241;PMS5003;65659;49.234;-2.094;2023-07-31T09:09:03;7;7;
73241;PMS5003;65659;49.234;-2.094;2023-07-31T09:11:28;8;7;
73241;PMS5003;65659;49.234;-2.094;2023-07-31T09:13:48;7;7;
73241;PMS5003;65659;49.234;-2.094;2023-07-31T09:21:05;10;9;
73241;PMS5003;65659;49.234;-2.094;2023-07-31T09:26:01;11;10;
73241;PMS5003;65659;49.234;-2.094;2023-07-31T09:28:29;6;5;
73241;PMS5003;65659;49.234;-2.094;2023-07-31T09:30:49;10;10;
73241;PMS5003;65659;49.234;-2.094;2023-07-31T09:33:14;8;8;
73241;PMS5003;65659;49.234;-2.094;2023-07-31T09:35:40;9;8;
73241;PMS5003;65659;49.234;-2.094;2023-07-31T09:38:09;16;16;
73241;PMS5003;65659;49.234;-2.094;2023-07-31T09:40:41;13;13;
73241;PMS5003;65659;49.234;-2.094;2023-07-31T09:43:20;11;10;
73241;PMS5003;65659;49.234;-2.094;2023-07-31T09:45:22;13;13;
73241;PMS5003;65659;49.234;-2.094;2023-07-31T09:47:49;10;9;
73241;PMS5003;65659;49.234;-2.094;2023-07-31T09:50:14;12;11;
73241;PMS5003;65659;49.234;-2.094;2023-07-31T09:52:38;11;10;
73241;PMS5003;65659;49.234;-2.094;2023-07-31T09:55:04;10;10;
73241;PMS5003;65659;49.234;-2.094;2023-07-31T09:57:32;8;8;
73241;PMS5003;65659;49.234;-2.094;2023-07-31T10:00:00;6;5;
73241;PMS5003;65659;49.234;-2.094;2023-07-31T10:02:24;5;5;
73241;PMS5003;65659;49.234;-2.094;2023-07-31T10:04:52;8;8;
73241;PMS5003;65659;49.234;-2.094;2023-07-31T10:07:17;7;6;
73241;PMS5003;65659;49.234;-2.094;2023-07-31T10:09:45;6;6;
73241;PMS5003;65659;49.234;-2.094;2023-07-31T10:12:11;7;7;
73241;PMS5003;65659;49.234;-2.094;2023-07-31T10:14:35;8;8;
73241;PMS5003;65659;49.234;-2.094;2023-07-31T10:16:56;7;6;
73241;PMS5003;65659;49.234;-2.094;2023-07-31T10:19:28;6;6;
73241;PMS5003;65659;49.234;-2.094;2023-07-31T10:21:56;8;8;
73241;PMS5003;65659;49.234;-2.094;2023-07-31T10:24:14;8;8;
73241;PMS5003;65659;49.234;-2.094;2023-07-31T10:26:38;8;6;
73241;PMS5003;65659;49.234;-2.094;2023-07-31T10:29:04;5;5;
73241;PMS5003;65659;49.234;-2.094;2023-07-31T10:31:28;10;8;
73241;PMS5003;65659;49.234;-2.094;2023-07-31T10:33:54;5;4;
73241;PMS5003;65659;49.234;-2.094;2023-07-31T10:36:19;7;7;
73241;PMS5003;65659;49.234;-2.094;2023-07-31T10:38:46;6;6;
73241;PMS5003;65659;49.234;-2.094;2023-07-31T10:41:10;7;7;
73241;PMS5003;65659;49.234;-2.094;2023-07-31T10:43:38;6;6;
73241;PMS5003;65659;49.234;-2.094;2023-07-31T10:46:05;3;2;
73241;PMS5003;65659;49.234;-2.094;2023-07-31T10:48:32;4;4;
73241;PMS5003;65659;49.234;-2.094;2023-07-31T10:50:55;5;5;
73241;PMS5003;65659;49.234;-2.094;2023-07-31T10:53:23;5;4;
73241;PMS5003;65659;49.234;-2.094;2023-07-31T10:55:45;4;4;
73241;PMS5003;65659;49.234;-2.094;2023-07-31T10:58:13;5;4;
73241;PMS5003;65659;49.234;-2.094;2023-07-31T11:00:45;4;4;
73241;PMS5003;65659;49.234;-2.094;2023-07-31T11:07:58;6;5;
73241;PMS5003;65659;49.234;-2.094;2023-07-31T11:10:27;5;4;
73241;PMS5003;65659;49.234;-2.094;2023-07-31T11:12:47;4;4;
73241;PMS5003;65659;49.234;-2.094;2023-07-31T11:17:41;6;4;
73241;PMS5003;65659;49.234;-2.094;2023-07-31T11:20:22;3;3;
73241;PMS5003;65659;49.234;-2.094;2023-07-31T11:22:28;5;4;
73241;PMS5003;65659;49.234;-2.094;2023-07-31T11:24:53;4;4;
73241;PMS5003;65659;49.234;-2.094;2023-07-31T11:27:23;5;5;
73241;PMS5003;65659;49.234;-2.094;2023-07-31T11:29:49;4;4;
73241;PMS5003;65659;49.234;-2.094;2023-07-31T11:37:04;4;3;
73241;PMS5003;65659;49.234;-2.094;2023-07-31T11:44:20;2;2;
73241;PMS5003;65659;49.234;-2.094;2023-07-31T11:46:44;2;2;
73241;PMS5003;65659;49.234;-2.094;2023-07-31T11:49:09;2;2;
73241;PMS5003;65659;49.234;-2.094;2023-07-31T11:51:36;2;2;
73241;PMS5003;65659;49.234;-2.094;2023-07-31T11:54:01;3;3;
73241;PMS5003;65659;49.234;-2.094;2023-07-31T11:56:27;3;2;
73241;PMS5003;65659;49.234;-2.094;2023-07-31T11:58:57;2;2;
73241;PMS5003;65659;49.234;-2.094;2023-07-31T12:01:20;1;1;
73241;PMS5003;65659;49.234;-2.094;2023-07-31T12:03:49;3;2;
73241;PMS5003;65659;49.234;-2.094;2023-07-31T12:06:11;4;3;
73241;PMS5003;65659;49.234;-2.094;2023-07-31T12:08:44;1;1;
73241;PMS5003;65659;49.234;-2.094;2023-07-31T12:11:04;3;2;
73241;PMS5003;65659;49.234;-2.094;2023-07-31T12:13:28;4;3;
73241;PMS5003;65659;49.234;-2.094;2023-07-31T12:15:53;1;1;
73241;PMS5003;65659;49.234;-2.094;2023-07-31T12:18:19;3;3;
73241;PMS5003;65659;49.234;-2.094;2023-07-31T12:20:45;2;2;
73241;PMS5003;65659;49.234;-2.094;2023-07-31T12:25:48;1;1;
73241;PMS5003;65659;49.234;-2.094;2023-07-31T12:28:06;0;0;
73241;PMS5003;65659;49.234;-2.094;2023-07-31T12:30:27;2;1;
73241;PMS5003;65659;49.234;-2.094;2023-07-31T12:32:51;1;1;
73241;PMS5003;65659;49.234;-2.094;2023-07-31T12:35:18;0;0;
73241;PMS5003;65659;49.234;-2.094;2023-07-31T12:37:44;1;0;
73241;PMS5003;65659;49.234;-2.094;2023-07-31T12:40:11;0;0;
73241;PMS5003;65659;49.234;-2.094;2023-07-31T12:42:35;0;0;
73241;PMS5003;65659;49.234;-2.094;2023-07-31T12:45:00;1;1;
73241;PMS5003;65659;49.234;-2.094;2023-07-31T12:47:25;0;0;
73241;PMS5003;65659;49.234;-2.094;2023-07-31T12:49:51;0;0;
73241;PMS5003;65659;49.234;-2.094;2023-07-31T12:52:19;1;1;
73241;PMS5003;65659;49.234;-2.094;2023-07-31T12:54:45;1;1;
73241;PMS5003;65659;49.234;-2.094;2023-07-31T12:57:09;2;2;
73241;PMS5003;65659;49.234;-2.094;2023-07-31T12:59:36;2;2;
73241;PMS5003;65659;49.234;-2.094;2023-07-31T13:02:00;3;3;
73241;PMS5003;65659;49.234;-2.094;2023-07-31T13:04:29;2;2;
73241;PMS5003;65659;49.234;-2.094;2023-07-31T13:06:53;2;2;
73241;PMS5003;65659;49.234;-2.094;2023-07-31T13:09:17;3;3;
73241;PMS5003;65659;49.234;-2.094;2023-07-31T13:11:42;3;3;
73241;PMS5003;65659;49.234;-2.094;2023-07-31T13:14:08;2;2;
73241;PMS5003;65659;49.234;-2.094;2023-07-31T13:16:33;1;1;
73241;PMS5003;65659;49.234;-2.094;2023-07-31T13:18:59;2;1;
73241;PMS5003;65659;49.234;-2.094;2023-07-31T13:21:26;1;1;
73241;PMS5003;65659;49.234;-2.094;2023-07-31T13:23:50;0;0;
73241;PMS5003;65659;49.234;-2.094;2023-07-31T13:26:16;0;0;
73241;PMS5003;65659;49.234;-2.094;2023-07-31T13:28:42;1;0;
73241;PMS5003;65659;49.234;-2.094;2023-07-31T13:31:08;0;0;
73241;PMS5003;65659;49.234;-2.094;2023-07-31T13:33:34;0;0;
73241;PMS5003;65659;49.234;-2.094;2023-07-31T13:35:59;2;1;
73241;PMS5003;65659;49.234;-2.094;2023-07-31T13:38:25;1;1;
73241;PMS5003;65659;49.234;-2.094;2023-07-31T13:40:50;0;0;
73241;PMS5003;65659;49.234;-2.094;2023-07-31T13:43:16;1;0;
73241;PMS5003;65659;49.234;-2.094;2023-07-31T13:45:42;1;0;
73241;PMS5003;65659;49.234;-2.094;2023-07-31T13:48:07;2;1;
73241;PMS5003;65659;49.234;-2.094;2023-07-31T13:50:33;3;2;
73241;PMS5003;65659;49.234;-2.094;2023-07-31T13:52:59;1;1;
73241;PMS5003;65659;49.234;-2.094;2023-07-31T13:55:26;1;1;
73241;PMS5003;65659;49.234;-2.094;2023-07-31T13:57:50;2;1;
73241;PMS5003;65659;49.234;-2.094;2023-07-31T14:00:16;1;1;
73241;PMS5003;65659;49.234;-2.094;2023-07-31T14:02:42;2;2;
73241;PMS5003;65659;49.234;-2.094;2023-07-31T14:05:08;2;1;
73241;PMS5003;65659;49.234;-2.094;2023-07-31T14:07:33;2;1;
73241;PMS5003;65659;49.234;-2.094;2023-07-31T14:09:59;4;3;
73241;PMS5003;65659;49.234;-2.094;2023-07-31T14:12:24;2;2;
73241;PMS5003;65659;49.234;-2.094;2023-07-31T14:14:50;2;2;
73241;PMS5003;65659;49.234;-2.094;2023-07-31T14:17:16;2;2;
73241;PMS5003;65659;49.234;-2.094;2023-07-31T14:19:41;5;4;
73241;PMS5003;65659;49.234;-2.094;2023-07-31T14:22:07;2;2;
73241;PMS5003;65659;49.234;-2.094;2023-07-31T14:24:33;0;0;
73241;PMS5003;65659;49.234;-2.094;2023-07-31T14:26:59;1;1;
73241;PMS5003;65659;49.234;-2.094;2023-07-31T14:29:24;3;3;
73241;PMS5003;65659;49.234;-2.094;2023-07-31T14:31:50;1;1;
73241;PMS5003;65659;49.234;-2.094;2023-07-31T14:34:16;1;1;
73241;PMS5003;65659;49.234;-2.094;2023-07-31T14:36:41;1;1;
73241;PMS5003;65659;49.234;-2.094;2023-07-31T14:39:07;2;2;
73241;PMS5003;65659;49.234;-2.094;2023-07-31T14:41:32;1;1;
73241;PMS5003;65659;49.234;-2.094;2023-07-31T14:43:58;2;2;
73241;PMS5003;65659;49.234;-2.094;2023-07-31T14:46:24;1;1;
73241;PMS5003;65659;49.234;-2.094;2023-07-31T14:48:50;1;1;
73241;PMS5003;65659;49.234;-2.094;2023-07-31T14:51:17;2;1;
73241;PMS5003;65659;49.234;-2.094;2023-07-31T14:53:41;1;1;
73241;PMS5003;65659;49.234;-2.094;2023-07-31T14:56:07;1;1;
73241;PMS5003;65659;49.234;-2.094;2023-07-31T14:58:33;1;1;
73241;PMS5003;65659;49.234;-2.094;2023-07-31T15:01:02;0;0;
73241;PMS5003;65659;49.234;-2.094;2023-07-31T15:03:25;6;6;
73241;PMS5003;65659;49.234;-2.094;2023-07-31T15:05:49;2;1;
73241;PMS5003;65659;49.234;-2.094;2023-07-31T15:08:16;1;1;
73241;PMS5003;65659;49.234;-2.094;2023-07-31T15:10:42;1;1;
73241;PMS5003;65659;49.234;-2.094;2023-07-31T15:13:07;2;2;
73241;PMS5003;65659;49.234;-2.094;2023-07-31T15:15:32;1;1;
73241;PMS5003;65659;49.234;-2.094;2023-07-31T15:17:57;3;2;
73241;PMS5003;65659;49.234;-2.094;2023-07-31T15:20:23;1;1;
73241;PMS5003;65659;49.234;-2.094;2023-07-31T15:22:49;2;2;
73241;PMS5003;65659;49.234;-2.094;2023-07-31T15:25:14;3;3;
73241;PMS5003;65659;49.234;-2.094;2023-07-31T15:27:40;3;3;
73241;PMS5003;65659;49.234;-2.094;2023-07-31T15:30:07;2;1;
73241;PMS5003;65659;49.234;-2.094;2023-07-31T15:32:31;2;2;
73241;PMS5003;65659;49.234;-2.094;2023-07-31T15:34:57;5;3;
73241;PMS5003;65659;49.234;-2.094;2023-07-31T15:37:23;2;2;
73241;PMS5003;65659;49.234;-2.094;2023-07-31T15:39:48;3;3;
73241;PMS5003;65659;49.234;-2.094;2023-07-31T15:42:14;2;2;
73241;PMS5003;65659;49.234;-2.094;2023-07-31T15:44:40;2;2;
73241;PMS5003;65659;49.234;-2.094;2023-07-31T15:47:06;3;3;
73241;PMS5003;65659;49.234;-2.094;2023-07-31T15:49:32;2;2;
73241;PMS5003;65659;49.234;-2.094;2023-07-31T15:51:57;0;0;
73241;PMS5003;65659;49.234;-2.094;2023-07-31T15:54:23;2;2;
73241;PMS5003;65659;49.234;-2.094;2023-07-31T15:56:49;2;1;
73241;PMS5003;65659;49.234;-2.094;2023-07-31T15:59:15;0;0;
73241;PMS5003;65659;49.234;-2.094;2023-07-31T16:01:40;0;0;
73241;PMS5003;65659;49.234;-2.094;2023-07-31T16:04:06;0;0;
73241;PMS5003;65659;49.234;-2.094;2023-07-31T16:06:32;0;0;
73241;PMS5003;65659;49.234;-2.094;2023-07-31T16:08:57;1;1;
73241;PMS5003;65659;49.234;-2.094;2023-07-31T16:11:23;0;0;
73241;PMS5003;65659;49.234;-2.094;2023-07-31T16:13:49;0;0;
73241;PMS5003;65659;49.234;-2.094;2023-07-31T16:16:14;0;0;
73241;PMS5003;65659;49.234;-2.094;2023-07-31T16:18:40;0;0;
73241;PMS5003;65659;49.234;-2.094;2023-07-31T16:21:06;0;0;
73241;PMS5003;65659;49.234;-2.094;2023-07-31T16:23:32;0;0;
73241;PMS5003;65659;49.234;-2.094;2023-07-31T16:25:57;0;0;
73241;PMS5003;65659;49.234;-2.094;2023-07-31T16:28:23;0;0;
73241;PMS5003;65659;49.234;-2.094;2023-07-31T16:30:49;0;0;
73241;PMS5003;65659;49.234;-2.094;2023-07-31T16:33:14;0;0;
73241;PMS5003;65659;49.234;-2.094;2023-07-31T16:35:40;0;0;
73241;PMS5003;65659;49.234;-2.094;2023-07-31T16:38:06;0;0;
73241;PMS5003;65659;49.234;-2.094;2023-07-31T16:40:32;0;0;
73241;PMS5003;65659;49.234;-2.094;2023-07-31T16:42:57;0;0;
73241;PMS5003;65659;49.234;-2.094;2023-07-31T16:45:23;0;0;
73241;PMS5003;65659;49.234;-2.094;2023-07-31T16:47:49;0;0;